Time;durP1;ratioP1;P1;durP2;ratioP2;P2;SDS_P1;SDS_P2;PMS_P1;PMS_P2;Temp;Humidity;BMP_temperature;BMP_pressure;BME280_temperature;BME280_humidity;BME280_pressure;Samples;Min_cycle;Max_cycle;Signal;HPM_P1;HPM_P2
2022/04/25 00:00:35;;;;;;;2.38;1.83;;;9.70;99.90;;;;;;5044281;28;20547;-76
2022/04/25 00:03:01;;;;;;;3.60;2.20;;;9.60;99.90;;;;;;5042418;28;20068;-76
2022/04/25 00:05:27;;;;;;;3.80;1.75;;;9.70;99.90;;;;;;5029759;28;20091;-75
2022/04/25 00:07:53;;;;;;;2.95;2.05;;;9.70;99.90;;;;;;5048649;28;20432;-75
2022/04/25 00:10:19;;;;;;;3.08;2.00;;;9.70;99.90;;;;;;5044511;28;20125;-75
2022/04/25 00:12:45;;;;;;;3.47;2.28;;;9.70;99.90;;;;;;5028392;28;20040;-75
2022/04/25 00:15:11;;;;;;;5.35;2.25;;;9.70;99.90;;;;;;5043749;28;20025;-75
2022/04/25 00:17:37;;;;;;;3.13;2.10;;;9.70;99.90;;;;;;5029142;28;20035;-75
2022/04/25 00:20:04;;;;;;;3.40;1.95;;;9.70;99.90;;;;;;5043221;28;20025;-75
2022/04/25 00:22:30;;;;;;;3.65;2.05;;;9.70;99.90;;;;;;5046389;28;20041;-75
2022/04/25 00:24:56;;;;;;;3.22;2.40;;;9.70;99.90;;;;;;5049367;28;20098;-76
2022/04/25 00:27:22;;;;;;;3.38;2.55;;;9.70;99.90;;;;;;5043640;28;20079;-76
2022/04/25 00:29:47;;;;;;;4.53;2.80;;;9.70;99.90;;;;;;5026607;28;20086;-75
2022/04/25 00:32:13;;;;;;;3.38;2.67;;;9.60;99.90;;;;;;5027539;28;20041;-75
2022/04/25 00:34:39;;;;;;;4.03;2.78;;;9.70;99.90;;;;;;5043377;28;20041;-76
2022/04/25 00:37:05;;;;;;;3.55;2.60;;;9.60;99.90;;;;;;5043937;28;20029;-75
2022/04/25 00:39:31;;;;;;;4.35;2.88;;;9.60;99.90;;;;;;5028750;28;20037;-76
2022/04/25 00:41:57;;;;;;;4.50;3.13;;;9.60;99.90;;;;;;5045304;28;20029;-76
2022/04/25 00:44:23;;;;;;;8.05;4.00;;;9.60;99.90;;;;;;5048138;28;20420;-76
2022/04/25 00:46:52;;;;;;;4.32;2.92;;;9.60;99.90;;;;;;5028009;28;20112;-75
2022/04/25 00:49:18;;;;;;;7.35;3.72;;;9.60;99.90;;;;;;5039193;28;20033;-75
2022/04/25 00:51:44;;;;;;;5.95;3.55;;;9.60;99.90;;;;;;5043200;28;20075;-76
2022/04/25 00:54:10;;;;;;;6.63;3.55;;;9.60;99.90;;;;;;5048704;28;20072;-76
2022/04/25 00:56:36;;;;;;;4.70;3.10;;;9.60;99.90;;;;;;5043508;28;20025;-75
2022/04/25 00:59:03;;;;;;;7.25;4.20;;;9.60;99.90;;;;;;5041936;28;20514;-76
2022/04/25 01:01:31;;;;;;;5.40;3.17;;;9.60;99.90;;;;;;5044083;28;20017;-75
2022/04/25 01:03:57;;;;;;;6.30;3.65;;;9.60;99.90;;;;;;5042244;28;20025;-75
2022/04/25 01:06:23;;;;;;;5.85;3.90;;;9.50;99.90;;;;;;5027227;28;20079;-75
2022/04/25 01:08:51;;;;;;;6.30;4.20;;;9.50;99.90;;;;;;5047066;28;20037;-75
2022/04/25 01:11:17;;;;;;;6.38;4.00;;;9.50;99.90;;;;;;5039337;28;20025;-75
2022/04/25 01:13:44;;;;;;;7.10;3.85;;;9.50;99.90;;;;;;5027516;28;20028;-74
2022/04/25 01:16:10;;;;;;;6.03;3.72;;;9.50;99.90;;;;;;5044841;28;20488;-74
2022/04/25 01:18:36;;;;;;;4.53;3.53;;;9.50;99.90;;;;;;5027683;28;20087;-74
2022/04/25 01:21:04;;;;;;;6.13;4.43;;;9.50;99.90;;;;;;5045579;28;20480;-74
2022/04/25 01:29:01;;;;;;;5.53;3.95;;;9.50;99.90;;;;;;5044530;28;20032;-76
2022/04/25 01:31:26;;;;;;;5.50;3.83;;;9.50;99.90;;;;;;5046076;28;20047;-76
2022/04/25 01:33:53;;;;;;;6.60;4.55;;;9.60;99.90;;;;;;5024161;28;20029;-76
2022/04/25 01:36:22;;;;;;;6.15;4.20;;;9.60;99.90;;;;;;5045348;28;20033;-76
2022/04/25 01:38:48;;;;;;;6.65;4.07;;;9.60;99.90;;;;;;5041410;28;20021;-76
2022/04/25 01:41:13;;;;;;;7.18;4.47;;;9.60;99.90;;;;;;5045653;28;20021;-76
2022/04/25 01:43:39;;;;;;;6.15;4.07;;;9.60;99.90;;;;;;5043163;28;20459;-77
2022/04/25 01:46:05;;;;;;;5.68;3.63;;;9.60;99.90;;;;;;5044718;28;20021;-75
2022/04/25 01:48:31;;;;;;;5.93;3.95;;;9.60;99.90;;;;;;5048556;28;20031;-75
2022/04/25 01:50:57;;;;;;;6.55;4.20;;;9.60;99.90;;;;;;5041355;28;20037;-75
2022/04/25 01:53:23;;;;;;;5.40;3.70;;;9.60;99.90;;;;;;5043003;28;20036;-75
2022/04/25 01:55:48;;;;;;;5.43;3.28;;;9.60;99.90;;;;;;5023719;28;20045;-76
2022/04/25 01:58:14;;;;;;;5.97;3.83;;;9.60;99.90;;;;;;5042563;28;20100;-76
2022/04/25 02:00:40;;;;;;;6.10;3.83;;;9.60;99.90;;;;;;5044446;28;20029;-75
2022/04/25 02:03:05;;;;;;;6.47;3.83;;;9.70;99.90;;;;;;5042216;28;20140;-75
2022/04/25 02:05:31;;;;;;;5.40;4.00;;;9.70;99.90;;;;;;5044102;28;20033;-75
2022/04/25 02:07:57;;;;;;;5.40;3.47;;;9.70;99.90;;;;;;5025748;28;20848;-76
2022/04/25 02:10:23;;;;;;;4.32;3.35;;;9.70;99.90;;;;;;5042327;28;20767;-76
2022/04/25 02:12:48;;;;;;;7.20;3.40;;;9.70;99.90;;;;;;5026431;28;20025;-75
2022/04/25 02:15:14;;;;;;;4.60;3.25;;;9.70;99.90;;;;;;5046734;28;20108;-76
2022/04/25 02:17:41;;;;;;;4.78;3.53;;;9.60;99.90;;;;;;5044719;28;20116;-75
2022/04/25 02:20:08;;;;;;;4.63;3.38;;;9.60;99.90;;;;;;5042634;28;20024;-75
2022/04/25 02:22:35;;;;;;;4.72;3.30;;;9.60;99.90;;;;;;5024444;28;20034;-76
2022/04/25 02:25:01;;;;;;;5.00;3.28;;;9.70;99.90;;;;;;5041740;28;20128;-76
2022/04/25 02:27:27;;;;;;;7.85;3.47;;;9.60;99.90;;;;;;5040252;28;20492;-74
2022/04/25 02:30:20;;;;;;;5.53;3.70;;;9.60;99.90;;;;;;5046810;28;20068;-75
2022/04/25 02:32:46;;;;;;;4.88;3.50;;;9.60;99.90;;;;;;5027448;28;20033;-75
2022/04/25 02:35:12;;;;;;;6.13;3.88;;;9.50;99.90;;;;;;5043187;28;20071;-75
2022/04/25 02:37:38;;;;;;;7.18;4.18;;;9.60;99.90;;;;;;5044107;28;20079;-75
2022/04/25 02:40:04;;;;;;;6.13;4.28;;;9.60;99.90;;;;;;5044655;28;20025;-76
2022/04/25 02:42:30;;;;;;;5.78;3.80;;;9.60;99.90;;;;;;5047131;28;20039;-75
2022/04/25 02:44:55;;;;;;;6.05;3.90;;;9.60;99.90;;;;;;5044705;28;20385;-75
2022/04/25 02:47:21;;;;;;;5.75;4.25;;;9.60;99.90;;;;;;5046061;28;21293;-75
2022/04/25 02:49:46;;;;;;;5.30;3.85;;;9.60;99.90;;;;;;5042476;28;20021;-74
2022/04/25 02:52:13;;;;;;;6.55;4.22;;;9.60;99.90;;;;;;5042606;28;20488;-75
2022/04/25 02:54:38;;;;;;;5.25;3.97;;;9.60;99.90;;;;;;5041863;28;20048;-75
2022/04/25 02:57:04;;;;;;;6.20;3.70;;;9.60;99.90;;;;;;5042774;28;20068;-75
2022/04/25 02:59:30;;;;;;;6.88;3.85;;;9.60;99.90;;;;;;5046827;28;20128;-75
2022/04/25 03:01:55;;;;;;;6.32;3.78;;;9.60;99.90;;;;;;5042052;28;20021;-75
2022/04/25 03:04:21;;;;;;;6.65;4.28;;;9.60;99.90;;;;;;5022539;28;20536;-75
2022/04/25 03:06:47;;;;;;;5.88;3.70;;;9.50;99.90;;;;;;5042565;28;20031;-75
2022/04/25 03:09:12;;;;;;;6.60;3.95;;;9.50;99.90;;;;;;5042446;28;20117;-75
2022/04/25 03:11:38;;;;;;;7.38;4.60;;;9.50;99.90;;;;;;5069023;22;20041;-78
2022/04/25 03:14:04;;;;;;;6.13;4.35;;;9.50;99.90;;;;;;5045092;28;20029;-79
2022/04/25 03:16:29;;;;;;;6.43;4.25;;;9.50;99.90;;;;;;5029929;28;20127;-78
2022/04/25 03:18:58;;;;;;;6.22;4.25;;;9.50;99.90;;;;;;5047225;28;20067;-79
2022/04/25 03:21:24;;;;;;;8.27;5.25;;;9.50;99.90;;;;;;5047433;28;20523;-79
2022/04/25 03:23:51;;;;;;;6.35;4.47;;;9.40;99.90;;;;;;5050351;28;20037;-79
2022/04/25 03:26:17;;;;;;;6.93;4.88;;;9.40;99.90;;;;;;5044993;28;20032;-79
2022/04/25 03:28:43;;;;;;;8.38;5.18;;;9.40;99.90;;;;;;5047783;28;20028;-78
2022/04/25 03:31:09;;;;;;;7.18;4.57;;;9.40;99.90;;;;;;5048257;28;20054;-78
2022/04/25 03:33:36;;;;;;;8.15;5.03;;;9.40;99.90;;;;;;5048510;28;20108;-78
2022/04/25 03:36:02;;;;;;;7.20;4.85;;;9.40;99.90;;;;;;5048602;28;20104;-78
2022/04/25 03:38:28;;;;;;;7.38;4.75;;;9.30;99.90;;;;;;5034653;28;20025;-78
2022/04/25 03:40:54;;;;;;;7.30;4.90;;;9.30;99.90;;;;;;5046868;28;20404;-78
2022/04/25 03:43:20;;;;;;;7.57;5.25;;;9.30;99.90;;;;;;5050743;28;20017;-78
2022/04/25 03:45:45;;;;;;;6.68;4.60;;;9.30;99.90;;;;;;5049634;28;20391;-78
2022/04/25 03:48:11;;;;;;;6.25;4.50;;;9.20;99.90;;;;;;5048628;28;20037;-78
2022/04/25 03:50:36;;;;;;;6.75;4.40;;;9.20;99.90;;;;;;5050017;28;20025;-78
2022/04/25 03:53:10;;;;;;;7.18;5.25;;;9.10;99.90;;;;;;5048395;28;20028;-78
2022/04/25 03:58:21;;;;;;;6.47;4.80;;;9.10;99.90;;;;;;5049725;28;20068;-78
2022/04/25 04:00:47;;;;;;;8.85;5.75;;;9.10;99.90;;;;;;5031148;28;20032;-79
2022/04/25 04:03:15;;;;;;;7.03;4.45;;;9.10;99.90;;;;;;5022712;28;20120;-79
2022/04/25 04:05:42;;;;;;;9.02;5.50;;;9.10;99.90;;;;;;5048701;28;20017;-79
2022/04/25 04:08:09;;;;;;;10.05;6.32;;;9.10;99.90;;;;;;5046493;28;21453;-78
2022/04/25 04:10:34;;;;;;;6.93;4.72;;;9.20;99.90;;;;;;5031663;28;20060;-78
2022/04/25 04:13:00;;;;;;;6.88;5.20;;;9.10;99.90;;;;;;5049244;28;20064;-78
2022/04/25 04:15:26;;;;;;;7.45;5.43;;;9.20;99.90;;;;;;5049353;28;20041;-78
2022/04/25 04:17:52;;;;;;;9.13;5.88;;;9.20;99.90;;;;;;5045393;28;20028;-79
2022/04/25 04:20:17;;;;;;;9.30;5.88;;;9.20;99.90;;;;;;5029208;28;20020;-78
2022/04/25 04:22:43;;;;;;;9.02;5.45;;;9.20;99.90;;;;;;5050515;28;20029;-78
2022/04/25 04:25:13;;;;;;;9.38;5.95;;;9.20;99.90;;;;;;5025464;28;20029;-78
2022/04/25 04:27:40;;;;;;;10.80;6.72;;;9.20;99.90;;;;;;5046135;28;20110;-79
2022/04/25 04:30:07;;;;;;;8.50;5.70;;;9.30;99.90;;;;;;5049056;28;20025;-79
2022/04/25 04:32:34;;;;;;;9.20;6.07;;;9.30;99.90;;;;;;5046278;28;20028;-79
2022/04/25 04:35:00;;;;;;;9.18;6.30;;;9.30;99.90;;;;;;5044417;28;20027;-79
2022/04/25 04:37:29;;;;;;;9.00;6.82;;;9.30;99.90;;;;;;5048109;28;20036;-79
2022/04/25 04:42:39;;;;;;;9.48;6.75;;;9.30;99.90;;;;;;5043571;28;20055;-79
2022/04/25 04:45:05;;;;;;;9.82;6.57;;;9.30;99.90;;;;;;5047897;28;20076;-78
2022/04/25 04:47:38;;;;;;;8.50;6.00;;;9.30;99.90;;;;;;5030700;28;20125;-80
2022/04/25 04:50:05;;;;;;;8.85;6.25;;;9.30;99.90;;;;;;5045801;28;20025;-79
2022/04/25 04:52:31;;;;;;;9.85;6.32;;;9.40;99.90;;;;;;5041736;28;20036;-78
2022/04/25 04:54:57;;;;;;;9.57;6.55;;;9.50;99.90;;;;;;5026291;28;20396;-80
2022/04/25 04:57:23;;;;;;;10.25;6.90;;;9.50;99.90;;;;;;5045742;28;20021;-80
2022/04/25 04:59:48;;;;;;;9.70;6.93;;;9.50;99.90;;;;;;5027230;28;20553;-80
2022/04/25 05:02:17;;;;;;;11.05;7.03;;;9.60;99.90;;;;;;5042626;28;21511;-80
2022/04/25 05:04:46;;;;;;;10.43;7.07;;;9.60;99.90;;;;;;5045965;28;20477;-79
2022/04/25 05:07:12;;;;;;;12.52;8.15;;;9.60;99.90;;;;;;5047023;28;20366;-79
2022/04/25 05:09:37;;;;;;;9.55;7.32;;;9.70;99.90;;;;;;5045047;28;20082;-80
2022/04/25 05:12:04;;;;;;;10.80;7.47;;;9.70;99.90;;;;;;5043542;28;20107;-79
2022/04/25 05:14:29;;;;;;;12.00;7.97;;;9.70;99.90;;;;;;5027029;28;20029;-81
2022/04/25 05:16:55;;;;;;;11.98;8.35;;;9.80;99.90;;;;;;5030478;28;20048;-80
2022/04/25 05:19:20;;;;;;;11.30;7.47;;;9.80;99.90;;;;;;5046818;28;20538;-81
2022/04/25 05:21:47;;;;;;;10.32;7.45;;;9.70;99.90;;;;;;5029359;28;20024;-81
2022/04/25 05:24:13;;;;;;;12.05;7.88;;;9.80;99.90;;;;;;5045019;28;20051;-79
2022/04/25 05:26:38;;;;;;;13.25;7.97;;;9.80;99.90;;;;;;5045706;28;20029;-81
2022/04/25 05:29:04;;;;;;;12.57;8.00;;;9.90;99.90;;;;;;5040531;28;20164;-81
2022/04/25 05:31:29;;;;;;;13.05;8.50;;;9.90;99.90;;;;;;5043624;28;20037;-83
2022/04/25 05:33:55;;;;;;;13.55;8.98;;;10.00;99.90;;;;;;5046629;28;20029;-81
2022/04/25 05:36:21;;;;;;;11.30;7.75;;;9.90;99.90;;;;;;5044226;28;20025;-84
2022/04/25 05:38:46;;;;;;;13.13;8.55;;;10.00;99.90;;;;;;5048303;28;20021;-81
2022/04/25 05:41:12;;;;;;;13.52;8.80;;;10.00;99.90;;;;;;5029565;28;20500;-81
2022/04/25 05:43:39;;;;;;;11.82;8.35;;;10.00;99.90;;;;;;5045531;28;20029;-81
2022/04/25 05:46:05;;;;;;;14.77;9.00;;;10.10;99.90;;;;;;5045827;28;20083;-82
2022/04/25 05:54:16;;;;;;;12.90;8.13;;;10.10;99.90;;;;;;4948160;28;20019;-82
2022/04/25 05:56:41;;;;;;;13.55;8.90;;;10.10;99.90;;;;;;5007836;28;20056;-81
2022/04/25 05:59:07;;;;;;;12.57;8.85;;;10.10;99.90;;;;;;5046457;28;20032;-77
2022/04/25 06:01:32;;;;;;;14.43;9.52;;;10.20;99.90;;;;;;5047053;28;20047;-80
2022/04/25 06:03:58;;;;;;;14.70;9.45;;;10.20;99.90;;;;;;5042072;28;20021;-79
2022/04/25 06:06:26;;;;;;;13.07;9.80;;;10.20;99.90;;;;;;5039061;28;20021;-80
2022/04/25 06:08:52;;;;;;;12.70;9.68;;;10.20;99.90;;;;;;5017846;28;20036;-80
2022/04/25 06:11:18;;;;;;;12.55;9.38;;;10.30;99.90;;;;;;5038016;28;20082;-79
2022/04/25 06:13:44;;;;;;;13.45;9.27;;;10.40;99.90;;;;;;5038884;28;20068;-80
2022/04/25 06:16:13;;;;;;;14.13;9.30;;;10.40;99.90;;;;;;5035463;28;20029;-80
2022/04/25 06:18:39;;;;;;;14.60;8.68;;;10.50;99.90;;;;;;5042097;28;20469;-79
2022/04/25 06:21:05;;;;;;;12.93;8.57;;;10.70;99.90;;;;;;5043995;28;20032;-78
2022/04/25 06:23:31;;;;;;;15.32;9.25;;;10.90;99.90;;;;;;5042704;28;20029;-79
2022/04/25 06:25:58;;;;;;;11.55;8.82;;;11.00;99.90;;;;;;5027069;28;20408;-79
2022/04/25 06:28:26;;;;;;;13.38;8.75;;;11.10;99.90;;;;;;5046513;28;20032;-79
2022/04/25 06:30:52;;;;;;;12.82;9.50;;;11.20;99.90;;;;;;5045560;28;20025;-80
2022/04/25 06:33:18;;;;;;;14.93;10.15;;;11.30;99.90;;;;;;5023854;28;20029;-79
2022/04/25 06:35:44;;;;;;;12.63;9.73;;;11.40;99.90;;;;;;5043053;28;20505;-80
2022/04/25 06:38:11;;;;;;;15.00;10.32;;;11.40;99.90;;;;;;5040662;28;20572;-80
2022/04/25 06:40:37;;;;;;;14.65;10.90;;;11.40;99.90;;;;;;5042697;28;20104;-81
2022/04/25 06:43:04;;;;;;;15.93;11.60;;;11.40;99.90;;;;;;5041928;28;20028;-82
2022/04/25 06:45:30;;;;;;;16.25;11.25;;;11.40;99.90;;;;;;5040308;28;20393;-82
2022/04/25 06:47:56;;;;;;;17.17;10.43;;;11.30;99.90;;;;;;5039001;28;20020;-81
2022/04/25 06:50:22;;;;;;;14.65;10.45;;;11.30;99.90;;;;;;5048381;28;20021;-80
2022/04/25 06:52:48;;;;;;;12.60;9.50;;;11.40;99.90;;;;;;5028201;28;20111;-82
2022/04/25 06:55:14;;;;;;;14.32;10.65;;;11.40;99.90;;;;;;5050927;28;20085;-80
2022/04/25 06:57:40;;;;;;;14.43;10.18;;;11.60;99.90;;;;;;5027965;28;20047;-80
2022/04/25 07:00:11;;;;;;;19.10;10.52;;;11.80;99.90;;;;;;5045020;28;20026;-79
2022/04/25 07:02:37;;;;;;;19.25;11.35;;;11.90;99.90;;;;;;5042800;28;20040;-79
2022/04/25 07:05:07;;;;;;;15.50;10.93;;;12.00;99.90;;;;;;5046616;28;20025;-80
2022/04/25 07:07:33;;;;;;;15.07;11.57;;;12.00;99.90;;;;;;5030865;28;20396;-81
2022/04/25 07:09:59;;;;;;;15.50;11.02;;;11.90;99.90;;;;;;5044649;28;20025;-80
2022/04/25 07:12:24;;;;;;;16.02;11.73;;;11.90;99.90;;;;;;5045781;28;20408;-80
2022/04/25 07:14:50;;;;;;;15.20;11.40;;;11.90;99.90;;;;;;5046283;28;20025;-81
2022/04/25 07:17:16;;;;;;;15.90;11.68;;;11.90;99.90;;;;;;5036713;28;20040;-81
2022/04/25 07:19:42;;;;;;;17.25;11.93;;;11.80;99.90;;;;;;5040277;28;20030;-81
2022/04/25 07:30:23;;;;;;;;;;;12.00;99.90;;;;;;5042608;28;20475;-80
2022/04/25 07:32:49;;;;;;;14.10;10.45;;;12.00;99.90;;;;;;5048166;28;19909;-79
2022/04/25 07:35:15;;;;;;;15.45;11.38;;;12.10;99.90;;;;;;5046255;28;20029;-79
2022/04/25 07:37:42;;;;;;;16.58;11.60;;;12.20;99.90;;;;;;5027803;28;21541;-79
2022/04/25 07:40:08;;;;;;;16.20;11.68;;;12.40;99.90;;;;;;5049615;28;20028;-80
2022/04/25 07:42:39;;;;;;;15.20;11.60;;;12.50;99.90;;;;;;5047915;28;20459;-80
2022/04/25 07:45:06;;;;;;;15.50;10.57;;;12.50;99.90;;;;;;5027635;28;20484;-80
2022/04/25 07:47:32;;;;;;;15.93;10.90;;;12.40;99.90;;;;;;5025479;28;20033;-79
2022/04/25 07:49:59;;;;;;;14.00;10.55;;;12.40;99.90;;;;;;5029414;28;20102;-81
2022/04/25 07:52:25;;;;;;;15.23;10.45;;;12.60;99.90;;;;;;5040952;28;20393;-82
2022/04/25 07:54:52;;;;;;;14.30;10.57;;;12.70;99.90;;;;;;5041411;28;20021;-79
2022/04/25 07:57:19;;;;;;;14.15;10.15;;;12.80;99.90;;;;;;5045369;28;20044;-76
2022/04/25 07:59:44;;;;;;;13.63;10.15;;;12.60;99.90;;;;;;5036190;28;20528;-78
2022/04/25 08:02:10;;;;;;;13.35;9.85;;;12.70;99.90;;;;;;5042328;28;20037;-78
2022/04/25 08:04:36;;;;;;;11.85;9.43;;;12.80;99.90;;;;;;5044551;28;20396;-79
2022/04/25 08:07:02;;;;;;;11.55;9.15;;;12.80;99.90;;;;;;5041776;28;20021;-77
2022/04/25 08:09:28;;;;;;;14.10;9.27;;;12.90;99.90;;;;;;5044709;28;20048;-79
2022/04/25 08:17:56;;;;;;;14.57;10.70;;;12.80;99.90;;;;;;5039396;28;20040;-75
2022/04/25 08:20:08;;;;;;;12.15;9.00;;;12.70;99.90;;;;;;5039410;28;20106;-78
2022/04/25 08:22:34;;;;;;;13.50;9.55;;;12.60;99.90;;;;;;5045982;28;20477;-78
2022/04/25 08:25:01;;;;;;;12.57;9.50;;;12.70;99.90;;;;;;5041841;28;20031;-78
2022/04/25 08:27:27;;;;;;;14.10;9.50;;;12.70;99.90;;;;;;5044960;28;20028;-78
2022/04/25 08:29:53;;;;;;;14.10;10.05;;;12.60;99.90;;;;;;5048279;28;20108;-78
2022/04/25 08:32:19;;;;;;;12.40;9.18;;;12.70;99.90;;;;;;5047984;28;20033;-79
2022/04/25 08:34:45;;;;;;;12.93;9.20;;;12.50;99.90;;;;;;5024564;28;20555;-78
2022/04/25 08:37:11;;;;;;;13.15;8.57;;;12.70;99.90;;;;;;5040652;28;20029;-78
2022/04/25 08:39:36;;;;;;;12.25;8.90;;;12.80;99.90;;;;;;5048282;28;20093;-78
2022/04/25 08:42:03;;;;;;;10.27;7.88;;;12.90;99.90;;;;;;5037857;28;20033;-79
2022/04/25 08:44:31;;;;;;;10.50;8.20;;;13.10;99.90;;;;;;5027301;28;20032;-80
2022/04/25 08:46:59;;;;;;;11.82;8.45;;;13.20;99.90;;;;;;5043418;28;20098;-80
2022/04/25 08:49:26;;;;;;;13.35;8.52;;;13.40;99.90;;;;;;5042942;28;20116;-85
2022/04/25 08:51:58;;;;;;;12.13;8.13;;;13.40;99.90;;;;;;5025734;28;20689;-84
2022/04/25 08:54:32;;;;;;;12.88;8.32;;;13.60;99.90;;;;;;5044717;28;20393;-83
2022/04/25 08:56:59;;;;;;;10.70;7.78;;;13.90;99.90;;;;;;5024691;28;20120;-83
2022/04/25 08:59:26;;;;;;;9.93;7.75;;;14.10;99.90;;;;;;5046637;28;20744;-79
2022/04/25 09:01:53;;;;;;;10.20;7.88;;;14.30;99.90;;;;;;5038705;28;20036;-81
2022/04/25 09:04:19;;;;;;;10.52;7.93;;;14.50;99.90;;;;;;5034204;28;20034;-84
2022/04/25 09:06:47;;;;;;;10.50;7.68;;;14.50;99.90;;;;;;5045535;28;20051;-86
2022/04/25 09:09:13;;;;;;;10.93;7.70;;;14.60;99.90;;;;;;5034652;28;20082;-83
2022/04/25 09:14:24;;;;;;;12.45;8.43;;;14.30;99.90;;;;;;5040019;28;20564;-82
2022/04/25 09:16:50;;;;;;;10.15;8.00;;;14.30;99.90;;;;;;5043779;28;20051;-84
2022/04/25 09:19:16;;;;;;;12.50;8.13;;;14.30;99.90;;;;;;5046712;28;20078;-83
2022/04/25 09:21:43;;;;;;;11.93;8.95;;;14.30;99.90;;;;;;5042084;28;20036;-83
2022/04/25 09:24:22;;;;;;;12.02;9.07;;;14.10;99.90;;;;;;5041857;28;20021;-83
2022/04/25 09:27:10;;;;;;;12.82;8.98;;;14.10;99.90;;;;;;5020035;28;20693;-85
2022/04/25 09:29:37;;;;;;;13.95;9.70;;;14.00;99.90;;;;;;5014547;28;20206;-84
2022/04/25 09:32:03;;;;;;;11.05;9.02;;;13.80;99.90;;;;;;5010635;28;20048;-83
2022/04/25 09:37:15;;;;;;;12.73;9.65;;;13.80;99.90;;;;;;5041224;28;20082;-85
2022/04/25 09:39:41;;;;;;;13.40;9.60;;;13.80;99.90;;;;;;5020101;28;20052;-85
2022/04/25 09:42:08;;;;;;;13.52;9.70;;;13.90;99.90;;;;;;5006170;28;20021;-78
2022/04/25 09:44:54;;;;;;;15.23;10.75;;;13.90;99.90;;;;;;5045123;28;20127;-79
2022/04/25 09:47:34;;;;;;;13.48;9.45;;;13.90;99.90;;;;;;5040176;28;20029;-79
2022/04/25 09:50:13;;;;;;;13.95;9.43;;;13.90;99.90;;;;;;5024291;28;20049;-79
2022/04/25 09:52:53;;;;;;;14.82;10.15;;;13.90;99.90;;;;;;5043977;28;20029;-79
2022/04/25 09:55:19;;;;;;;14.38;9.90;;;13.90;99.90;;;;;;5041797;28;20029;-79
2022/04/25 09:57:46;;;;;;;12.15;9.38;;;13.80;99.90;;;;;;5045513;28;20389;-79
2022/04/25 10:00:15;;;;;;;13.77;10.07;;;13.70;99.90;;;;;;5042052;28;20029;-79
2022/04/25 10:02:41;;;;;;;16.35;9.65;;;13.70;99.90;;;;;;5042415;28;20032;-78
2022/04/25 10:05:11;;;;;;;13.48;9.80;;;13.60;99.90;;;;;;5025795;28;20025;-80
2022/04/25 10:07:37;;;;;;;12.25;9.32;;;13.60;99.90;;;;;;5034153;28;20497;-79
2022/04/25 10:10:04;;;;;;;12.85;9.07;;;13.60;99.90;;;;;;5016252;28;20489;-83
2022/04/25 10:12:30;;;;;;;14.07;9.13;;;13.50;99.90;;;;;;4994011;28;20024;-82
2022/04/25 10:14:58;;;;;;;11.65;9.13;;;13.50;99.90;;;;;;5007208;28;20025;-82
2022/04/25 10:17:24;;;;;;;11.52;8.80;;;13.50;99.90;;;;;;5048000;28;20044;-83
2022/04/25 10:19:51;;;;;;;11.88;9.10;;;13.60;99.90;;;;;;5045985;28;20442;-83
2022/04/25 10:22:18;;;;;;;11.77;9.05;;;13.70;99.90;;;;;;5042535;28;20025;-80
2022/04/25 10:24:45;;;;;;;12.20;8.25;;;13.80;99.90;;;;;;5046092;28;20497;-82
2022/04/25 10:27:14;;;;;;;12.90;9.82;;;13.90;99.90;;;;;;5044294;28;20076;-78
2022/04/25 10:29:45;;;;;;;12.27;9.15;;;14.10;99.90;;;;;;5046167;28;20029;-78
2022/04/25 10:32:12;;;;;;;11.90;8.90;;;14.30;99.90;;;;;;5045132;28;20498;-79
2022/04/25 10:34:56;;;;;;;12.18;8.85;;;14.40;99.90;;;;;;5028475;28;20025;-78
2022/04/25 10:37:31;;;;;;;13.75;9.43;;;14.50;99.90;;;;;;5041566;28;20033;-78
2022/04/25 10:39:58;;;;;;;13.13;9.65;;;14.50;99.90;;;;;;5029260;28;20036;-77
2022/04/25 10:45:09;;;;;;;12.50;9.18;;;14.70;99.90;;;;;;5048857;28;20051;-79
2022/04/25 10:47:35;;;;;;;11.65;8.95;;;14.80;99.90;;;;;;5023278;28;20026;-78
2022/04/25 10:50:03;;;;;;;13.18;10.13;;;14.80;99.90;;;;;;5028562;28;20036;-78
2022/04/25 10:52:42;;;;;;;16.30;10.27;;;14.90;99.90;;;;;;5043202;28;20502;-78
2022/04/25 10:55:29;;;;;;;13.73;9.73;;;15.00;99.90;;;;;;5045793;28;20473;-78
2022/04/25 10:58:01;;;;;;;13.65;9.10;;;15.00;99.90;;;;;;5042872;28;20112;-79
2022/04/25 11:00:36;;;;;;;13.05;9.32;;;14.90;99.90;;;;;;5043230;28;20025;-80
2022/04/25 11:03:06;;;;;;;14.23;9.20;;;14.80;99.90;;;;;;5045537;28;20018;-79
2022/04/25 11:05:32;;;;;;;10.85;8.32;;;14.90;99.90;;;;;;5045996;28;20029;-80
2022/04/25 11:08:16;;;;;;;11.75;7.72;;;14.70;99.90;;;;;;5046373;28;20033;-80
2022/04/25 11:10:44;;;;;;;9.18;6.55;;;14.50;99.90;;;;;;5027826;28;20400;-79
2022/04/25 11:13:12;;;;;;;9.38;6.13;;;14.30;99.90;;;;;;5039148;28;20487;-79
2022/04/25 11:15:44;;;;;;;9.90;6.00;;;14.10;99.90;;;;;;5046307;28;20090;-83
2022/04/25 11:18:35;;;;;;;10.63;7.00;;;13.90;99.90;;;;;;5043051;28;20025;-81
2022/04/25 11:21:07;;;;;;;18.40;8.07;;;13.70;99.90;;;;;;5047957;28;20040;-84
2022/04/25 11:23:53;;;;;;;14.15;7.43;;;13.20;99.90;;;;;;5029078;28;20040;-83
2022/04/25 11:26:22;;;;;;;12.52;7.53;;;13.00;99.90;;;;;;5023705;28;20480;-81
2022/04/25 11:29:03;;;;;;;12.80;7.13;;;12.70;99.90;;;;;;5042302;28;20458;-83
2022/04/25 11:31:30;;;;;;;13.80;8.13;;;12.60;99.90;;;;;;5022395;28;20033;-82
2022/04/25 11:34:01;;;;;;;13.52;7.57;;;12.40;99.90;;;;;;5038436;28;20029;-81
2022/04/25 11:36:29;;;;;;;9.13;6.50;;;12.30;99.90;;;;;;5030923;28;20021;-84
2022/04/25 11:41:41;;;;;;;11.02;7.35;;;12.00;99.90;;;;;;5050176;28;20074;-84
2022/04/25 11:44:07;;;;;;;11.57;7.88;;;11.90;99.90;;;;;;5029257;28;20028;-85
2022/04/25 11:46:34;;;;;;;12.32;8.65;;;11.90;99.90;;;;;;5031819;28;20036;-84
2022/04/25 11:49:00;;;;;;;12.90;7.88;;;11.80;99.90;;;;;;5073269;28;20044;-83
2022/04/25 11:51:34;;;;;;;13.82;7.40;;;11.70;99.90;;;;;;5070430;28;20037;-83
2022/04/25 11:54:04;;;;;;;;;;;11.60;99.90;;;;;;5062236;28;20025;-84
2022/04/25 11:56:32;;;;;;;10.15;5.68;;;11.60;99.90;;;;;;5039955;28;19927;-85
2022/04/25 11:58:59;;;;;;;9.23;5.68;;;11.40;99.90;;;;;;5023577;28;21015;-81
2022/04/25 12:01:40;;;;;;;9.63;5.88;;;11.30;99.90;;;;;;5048586;28;20029;-80
2022/04/25 12:04:19;;;;;;;7.40;4.82;;;11.20;99.90;;;;;;5040544;28;20030;-83
2022/04/25 12:06:55;;;;;;;8.82;5.80;;;11.10;99.90;;;;;;5048811;28;20396;-80
2022/04/25 12:18:12;;;;;;;8.95;6.40;;;11.10;99.90;;;;;;5046350;28;20098;-80
2022/04/25 12:20:39;;;;;;;8.38;5.10;;;11.10;99.90;;;;;;5041896;28;20079;-76
2022/04/25 12:23:05;;;;;;;6.60;5.10;;;11.20;99.90;;;;;;5037354;28;20067;-78
2022/04/25 12:25:33;;;;;;;8.23;5.65;;;11.30;99.90;;;;;;5046213;28;20094;-80
2022/04/25 12:28:13;;;;;;;6.75;4.82;;;11.40;99.90;;;;;;5027723;28;20034;-79
2022/04/25 12:30:49;;;;;;;7.18;5.10;;;11.40;99.90;;;;;;5046060;28;20095;-82
2022/04/25 12:33:17;;;;;;;6.75;4.68;;;11.50;99.90;;;;;;5040564;28;20045;-80
2022/04/25 12:35:45;;;;;;;6.20;4.57;;;11.70;99.90;;;;;;5030399;28;20041;-82
2022/04/25 12:38:37;;;;;;;5.68;4.57;;;11.80;99.90;;;;;;5043500;28;20052;-78
2022/04/25 12:41:04;;;;;;;8.75;5.18;;;12.00;99.90;;;;;;5041427;28;20463;-85
2022/04/25 12:43:45;;;;;;;5.75;4.30;;;12.20;99.90;;;;;;5026746;28;20434;-81
2022/04/25 12:46:14;;;;;;;4.70;3.38;;;12.30;99.90;;;;;;5044615;28;20051;-82
2022/04/25 12:48:59;;;;;;;5.68;4.00;;;12.60;99.90;;;;;;5045070;28;20021;-82
2022/04/25 12:51:32;;;;;;;4.32;3.00;;;12.70;99.90;;;;;;5047404;28;20492;-79
2022/04/25 12:53:58;;;;;;;7.40;3.80;;;12.90;99.90;;;;;;5045056;28;20600;-83
2022/04/25 12:56:33;;;;;;;5.50;3.78;;;13.00;99.90;;;;;;5028967;28;20365;-84
2022/04/25 12:58:59;;;;;;;5.13;4.03;;;13.20;99.90;;;;;;5043709;28;20029;-83
2022/04/25 13:01:30;;;;;;;4.07;3.17;;;13.30;99.90;;;;;;5036926;28;20036;-83
2022/04/25 13:04:04;;;;;;;3.53;2.80;;;13.40;99.90;;;;;;5030127;28;20385;-84
2022/04/25 13:06:30;;;;;;;5.20;3.38;;;13.50;99.90;;;;;;5046655;28;20509;-83
2022/04/25 13:08:56;;;;;;;4.10;2.65;;;13.40;99.90;;;;;;5047897;28;20027;-82
2022/04/25 13:11:22;;;;;;;5.65;2.97;;;13.50;99.90;;;;;;5046644;28;20495;-83
2022/04/25 13:13:50;;;;;;;3.67;2.90;;;13.60;99.90;;;;;;5049950;28;20393;-84
2022/04/25 13:16:17;;;;;;;5.65;3.30;;;13.70;99.90;;;;;;5026160;28;20433;-77
2022/04/25 13:18:42;;;;;;;5.40;3.30;;;13.70;99.90;;;;;;5024733;28;20091;-79
2022/04/25 13:21:10;;;;;;;3.85;2.95;;;13.70;99.90;;;;;;5041562;28;20029;-83
2022/04/25 13:23:36;;;;;;;4.75;2.70;;;13.70;99.90;;;;;;5044262;28;20485;-79
2022/04/25 13:26:02;;;;;;;3.35;2.60;;;13.60;99.90;;;;;;5042025;28;20032;-81
2022/04/25 13:28:28;;;;;;;3.75;2.88;;;13.50;99.90;;;;;;5043686;28;20037;-84
2022/04/25 13:30:55;;;;;;;6.88;2.75;;;13.50;99.90;;;;;;5041885;28;20056;-81
2022/04/25 13:33:21;;;;;;;4.10;2.72;;;13.50;99.90;;;;;;5041967;28;20075;-80
2022/04/25 13:35:46;;;;;;;3.58;2.45;;;13.50;99.90;;;;;;5038492;28;20024;-79
2022/04/25 13:38:13;;;;;;;3.80;3.13;;;13.60;99.90;;;;;;5041794;28;20029;-78